createdAt,value
2022-10-23T00:00:17.285Z,100092.13
2022-10-23T00:03:42.751Z,100125.97
2022-10-23T00:07:07.994Z,100128.38
2022-10-23T00:10:31.995Z,100119.69
2022-10-23T00:13:57.158Z,100097.34
2022-10-23T00:17:23.146Z,100118.41
2022-10-23T00:20:48.403Z,100112.28
2022-10-23T00:24:12.193Z,100093.47
2022-10-23T00:27:35.967Z,100101.94
2022-10-23T00:30:59.335Z,100101.16
2022-10-23T00:34:24.539Z,100090.22
2022-10-23T00:37:49.351Z,100089.41
2022-10-23T00:41:18.448Z,100092.94
2022-10-23T00:45:17.654Z,100102.47
2022-10-23T00:48:41.329Z,100106.06
2022-10-23T00:52:11.526Z,100101.03
2022-10-23T00:55:39.337Z,100098.56
2022-10-23T00:59:03.110Z,100108.13
2022-10-23T01:02:26.467Z,100104.78
2022-10-23T01:05:55.177Z,100101.44
2022-10-23T01:09:25.922Z,100096.34
2022-10-23T01:12:57.170Z,100089.69
2022-10-23T01:16:26.374Z,100092.22
2022-10-23T01:20:03.570Z,100084.47
2022-10-23T01:23:55.101Z,100093.91
2022-10-23T01:27:25.225Z,100082.88
2022-10-23T01:30:50.953Z,100100.03
2022-10-23T01:34:18.022Z,100089.75
2022-10-23T01:37:43.530Z,100092.28
2022-10-23T01:41:13.445Z,100090.59
2022-10-23T01:44:42.343Z,100088.88
2022-10-23T01:48:10.032Z,100089.84
2022-10-23T01:51:36.344Z,100096.69
2022-10-23T01:55:04.229Z,100083.06
2022-10-23T01:58:31.186Z,100095.00
2022-10-23T02:02:00.793Z,100099.25
2022-10-23T02:05:27.441Z,100055.88
2022-10-23T02:08:52.345Z,100098.22
2022-10-23T02:12:33.041Z,100087.00
2022-10-23T02:16:10.217Z,100088.69
2022-10-23T02:19:46.178Z,100091.03
2022-10-23T02:23:23.203Z,100084.91
2022-10-23T02:26:53.508Z,100077.00
2022-10-23T02:30:18.508Z,100079.44
2022-10-23T02:33:43.211Z,100075.00
2022-10-23T02:37:08.242Z,100066.22
2022-10-23T02:40:38.851Z,100065.16
2022-10-23T02:44:19.048Z,100064.13
2022-10-23T02:47:54.881Z,100059.63
2022-10-23T02:51:23.982Z,100054.47
2022-10-23T02:55:09.678Z,100044.91
2022-10-23T02:58:41.138Z,100035.41
2022-10-23T03:02:08.867Z,100012.38
2022-10-23T03:05:35.221Z,100047.06
2022-10-23T03:09:02.214Z,100058.09
2022-10-23T03:12:28.535Z,100051.97
2022-10-23T03:15:52.518Z,100054.50
2022-10-23T03:19:16.515Z,100046.66
2022-10-23T03:22:40.672Z,100044.97
2022-10-23T03:26:03.952Z,100043.13
2022-10-23T03:29:28.243Z,100042.22
2022-10-23T03:32:52.231Z,100044.53
2022-10-23T03:36:17.228Z,100023.25
2022-10-23T03:39:40.809Z,100040.94
2022-10-23T03:43:05.074Z,100043.38
2022-10-23T03:46:30.011Z,100045.00
2022-10-23T03:49:53.376Z,100037.16
2022-10-23T03:53:16.950Z,100032.84
2022-10-23T03:56:40.215Z,100037.00
2022-10-23T04:00:07.274Z,100035.94
2022-10-23T04:03:32.079Z,100035.09
2022-10-23T04:06:54.929Z,100016.31
2022-10-23T04:10:18.916Z,100039.16
2022-10-23T04:13:42.277Z,100040.88
2022-10-23T04:17:05.957Z,100026.34
2022-10-23T04:20:30.872Z,100045.84
2022-10-23T04:23:54.745Z,100045.75
2022-10-23T04:27:19.955Z,100031.94
2022-10-23T04:30:43.015Z,100051.63
2022-10-23T04:37:36.510Z,100045.50
2022-10-23T04:40:59.676Z,100051.53
2022-10-23T04:44:22.838Z,100051.50
2022-10-23T04:47:45.799Z,100021.59
2022-10-23T04:51:10.093Z,100044.53
2022-10-23T04:54:40.322Z,100046.16
2022-10-23T04:58:04.100Z,100035.91
2022-10-23T05:01:28.644Z,100046.88
2022-10-23T05:04:52.062Z,100046.84
2022-10-23T05:08:18.062Z,100050.13
2022-10-23T05:11:43.211Z,100025.44
2022-10-23T05:15:08.329Z,100025.44
2022-10-23T05:18:35.378Z,100051.59
2022-10-23T05:22:00.274Z,100054.06
2022-10-23T05:25:23.643Z,100047.91
2022-10-23T05:28:48.243Z,100040.22
2022-10-23T05:32:14.177Z,100054.63
2022-10-23T05:35:43.274Z,100049.56
2022-10-23T05:39:07.873Z,100058.88
2022-10-23T05:42:32.057Z,100057.97
2022-10-23T05:46:00.751Z,100039.34
2022-10-23T05:49:26.480Z,100057.84
2022-10-23T05:52:50.868Z,100063.88
2022-10-23T05:56:14.750Z,100043.53
2022-10-23T05:59:37.915Z,100055.28
2022-10-23T06:03:03.638Z,100056.16
2022-10-23T06:06:27.125Z,100061.91
2022-10-23T06:09:50.275Z,100060.09
2022-10-23T06:13:14.468Z,100062.53
2022-10-23T06:16:40.497Z,100065.97
2022-10-23T06:20:06.831Z,100051.31
2022-10-23T06:23:33.486Z,100070.84
2022-10-23T06:26:57.468Z,100073.28
2022-10-23T06:30:21.439Z,100073.19
2022-10-23T06:33:45.119Z,100067.09
2022-10-23T06:42:02.894Z,100070.09
2022-10-23T06:45:26.260Z,100063.06
2022-10-23T06:48:49.950Z,100058.50
2022-10-23T06:52:18.454Z,100025.84
2022-10-23T11:32:23.457Z,100165.44
2022-10-23T11:36:24.571Z,100143.38
